Freedom, California
Current Conditions -  °F | °C
As of 7:53 PM on Tuesday 25 Nov 2014 (Local Time) from KWVI Reporting Station
Clear Clear  
Wind Chill: 57°   Ceiling: Unl
Heat Index: 57°   Visibility: 10mi
Dew Point: 45°   Wind: 5mph
Humidity: 64%   Direction: 320°NW
Pressure: 30.34"   Gusts: NA
Location:  36.94°N, 121.77°W
Report Text: KWVI 260353Z AUTO 32004KT 10SM CLR 14/07 A3034 RMK AO2 SLP272 T01390072
Loading
Personal Weather Stations






























Interactive Weather Map New forecast layout! Learn more

10-Day Weather Forecast

Advertisements
Track Severe Weather on mobile